Time;durP1;ratioP1;P1;durP2;ratioP2;P2;SDS_P1;SDS_P2;PMS_P1;PMS_P2;Temp;Humidity;BMP_temperature;BMP_pressure;BME280_temperature;BME280_humidity;BME280_pressure;Samples;Min_cycle;Max_cycle;Signal;HPM_P1;HPM_P2
2023/11/18 00:00:13;;;;;;;27.63;13.57;;;;;;;;;;6257430;22;20386;-88
2023/11/18 00:02:50;;;;;;;27.90;11.90;;;;;;;;;;6283632;22;20502;-86
2023/11/18 00:05:23;;;;;;;27.40;13.50;;;;;;;;;;6283328;22;20412;-85
2023/11/18 00:08:07;;;;;;;26.47;13.13;;;;;;;;;;6273343;22;20408;-85
2023/11/18 00:10:51;;;;;;;21.50;13.27;;;;;;;;;;6271944;22;20392;-88
2023/11/18 00:13:25;;;;;;;28.57;12.07;;;;;;;;;;6250092;22;20402;-87
2023/11/18 00:16:02;;;;;;;29.13;14.30;;;;;;;;;;6282282;22;20788;-86
2023/11/18 00:18:46;;;;;;;26.17;14.03;;;;;;;;;;6283416;22;20439;-86
2023/11/18 00:21:53;;;;;;;33.47;16.20;;;;;;;;;;6280716;22;20502;-87
2023/11/18 00:24:34;;;;;;;28.00;15.00;;;;;;;;;;6263963;22;20460;-84
2023/11/18 00:27:06;;;;;;;39.30;17.60;;;;;;;;;;6262654;22;20516;-86
2023/11/18 00:29:48;;;;;;;26.83;14.30;;;;;;;;;;6287741;22;20404;-86
2023/11/18 00:32:20;;;;;;;32.13;14.60;;;;;;;;;;6264342;22;20406;-87
2023/11/18 00:34:51;;;;;;;31.40;14.97;;;;;;;;;;6262487;22;20404;-86
2023/11/18 00:37:27;;;;;;;32.77;15.20;;;;;;;;;;6281594;22;20429;-86
2023/11/18 00:40:00;;;;;;;31.13;15.10;;;;;;;;;;6248162;22;20459;-84
2023/11/18 00:42:43;;;;;;;30.40;13.37;;;;;;;;;;6241965;22;20466;-85
2023/11/18 00:45:28;;;;;;;;;;;;;;;;;;;;;
2023/11/18 00:48:10;;;;;;;29.03;14.40;;;;;;;;;;6249921;22;20783;-86
2023/11/18 00:51:09;;;;;;;29.10;14.20;;;;;;;;;;6269862;22;20481;-86
2023/11/18 00:53:40;;;;;;;32.33;15.20;;;;;;;;;;6267977;22;20408;-86
2023/11/18 00:56:24;;;;;;;32.70;14.40;;;;;;;;;;6263673;22;20411;-86
2023/11/18 00:59:09;;;;;;;29.73;14.83;;;;;;;;;;6264172;22;20444;-85
2023/11/18 01:01:53;;;;;;;28.00;14.57;;;;;;;;;;6265201;22;20443;-87
2023/11/18 01:04:42;;;;;;;32.40;14.83;;;;;;;;;;6237631;22;20400;-86
2023/11/18 01:07:24;;;;;;;24.83;12.50;;;;;;;;;;6264856;22;20655;-88
2023/11/18 01:10:01;;;;;;;31.73;15.53;;;;;;;;;;6267908;22;20400;-85
2023/11/18 01:12:45;;;;;;;28.20;14.40;;;;;;;;;;6265900;22;20415;-85
2023/11/18 01:15:43;;;;;;;30.70;14.07;;;;;;;;;;6257521;22;20399;-87
2023/11/18 01:18:21;;;;;;;25.60;12.50;;;;;;;;;;6242741;22;20448;-85
2023/11/18 01:21:08;;;;;;;31.87;14.97;;;;;;;;;;6263137;22;20431;-85
2023/11/18 01:23:50;;;;;;;27.17;14.60;;;;;;;;;;6265150;22;20502;-83
2023/11/18 01:26:45;;;;;;;27.57;15.17;;;;;;;;;;6255261;22;20424;-85
2023/11/18 01:29:31;;;;;;;26.63;14.27;;;;;;;;;;6263842;22;20873;-87
2023/11/18 01:32:21;;;;;;;30.33;14.07;;;;;;;;;;6259734;22;20419;-87
2023/11/18 01:34:57;;;;;;;31.70;14.43;;;;;;;;;;6264426;22;20506;-85
2023/11/18 01:37:34;;;;;;;32.73;16.27;;;;;;;;;;6264157;22;20486;-86
2023/11/18 01:40:07;;;;;;;29.17;15.67;;;;;;;;;;6259573;22;20530;-87
2023/11/18 01:43:00;;;;;;;25.90;12.80;;;;;;;;;;6279501;22;20427;-86
2023/11/18 01:45:37;;;;;;;30.27;15.03;;;;;;;;;;6251127;23;20422;-84
2023/11/18 01:48:27;;;;;;;25.77;13.27;;;;;;;;;;6272838;22;20428;-87
2023/11/18 01:51:14;;;;;;;30.70;15.50;;;;;;;;;;6264043;22;20454;-83
2023/11/18 01:53:54;;;;;;;27.23;14.80;;;;;;;;;;6272220;22;20412;-86
2023/11/18 01:56:41;;;;;;;30.73;16.10;;;;;;;;;;6268408;22;20436;-87
2023/11/18 01:59:29;;;;;;;33.43;16.50;;;;;;;;;;6272402;22;20451;-86
2023/11/18 02:02:22;;;;;;;33.37;16.10;;;;;;;;;;6279852;22;20408;-87
2023/11/18 02:04:55;;;;;;;27.73;15.37;;;;;;;;;;6257946;23;20419;-86
2023/11/18 02:07:57;;;;;;;24.10;12.30;;;;;;;;;;6278511;22;20727;-85
2023/11/18 02:10:47;;;;;;;28.57;13.77;;;;;;;;;;6259976;22;20414;-86
2023/11/18 02:13:38;;;;;;;26.17;14.00;;;;;;;;;;6278712;22;20412;-85
2023/11/18 02:16:25;;;;;;;33.77;15.07;;;;;;;;;;6257753;22;20385;-86
2023/11/18 02:19:39;;;;;;;30.33;14.40;;;;;;;;;;6279003;22;20434;-86
2023/11/18 02:22:12;;;;;;;30.80;15.17;;;;;;;;;;6222810;23;20412;-85
2023/11/18 02:25:09;;;;;;;30.30;15.03;;;;;;;;;;6225147;23;20414;-86
2023/11/18 02:27:59;;;;;;;29.50;14.80;;;;;;;;;;6265459;22;20432;-85
2023/11/18 02:31:04;;;;;;;27.00;14.00;;;;;;;;;;6268831;22;20431;-86
2023/11/18 02:33:45;;;;;;;34.90;16.07;;;;;;;;;;6270035;22;20416;-87
2023/11/18 02:37:00;;;;;;;25.57;14.03;;;;;;;;;;6231489;22;20503;-85
2023/11/18 02:39:50;;;;;;;24.70;15.50;;;;;;;;;;6235966;22;20456;-85
2023/11/18 02:42:39;;;;;;;23.10;13.93;;;;;;;;;;6277403;22;20456;-87
2023/11/18 02:45:27;;;;;;;26.73;12.40;;;;;;;;;;6280173;22;20728;-86
2023/11/18 02:48:09;;;;;;;31.53;16.43;;;;;;;;;;6265638;22;20471;-86
2023/11/18 02:50:52;;;;;;;29.60;14.93;;;;;;;;;;6276249;22;20423;-85
2023/11/18 02:53:46;;;;;;;31.33;14.90;;;;;;;;;;6250074;22;20467;-86
2023/11/18 02:56:18;;;;;;;28.00;15.60;;;;;;;;;;6273286;22;20493;-86
2023/11/18 02:58:59;;;;;;;28.20;14.03;;;;;;;;;;6271036;22;20440;-85
2023/11/18 03:01:46;;;;;;;22.27;12.13;;;;;;;;;;6271608;22;20397;-87
2023/11/18 03:04:29;;;;;;;29.70;14.30;;;;;;;;;;6250992;22;20526;-86
2023/11/18 03:07:08;;;;;;;27.77;13.40;;;;;;;;;;6270743;22;20966;-86
2023/11/18 03:09:46;;;;;;;25.60;12.93;;;;;;;;;;6265970;22;20389;-87
2023/11/18 03:12:33;;;;;;;21.27;14.10;;;;;;;;;;6247317;22;20470;-83
2023/11/18 03:15:11;;;;;;;21.93;11.50;;;;;;;;;;6269642;22;20457;-85
2023/11/18 03:17:54;;;;;;;24.30;14.10;;;;;;;;;;6268839;22;20459;-85
2023/11/18 03:20:40;;;;;;;22.43;13.60;;;;;;;;;;6267883;22;20494;-84
2023/11/18 03:23:26;;;;;;;24.80;13.13;;;;;;;;;;6266552;22;20435;-87
2023/11/18 03:26:02;;;;;;;28.60;13.43;;;;;;;;;;6267803;22;20434;-85
2023/11/18 03:28:51;;;;;;;;;;;;;;;;;;;;;
2023/11/18 03:31:48;;;;;;;20.47;12.97;;;;;;;;;;6245677;23;20427;-86
2023/11/18 03:34:27;;;;;;;24.30;12.90;;;;;;;;;;6243886;22;20416;-85
2023/11/18 03:37:01;;;;;;;19.93;12.57;;;;;;;;;;6268456;22;20439;-86
2023/11/18 03:39:45;;;;;;;19.40;12.07;;;;;;;;;;6267317;22;20443;-86
2023/11/18 03:42:29;;;;;;;19.60;11.03;;;;;;;;;;6244373;22;20408;-86
2023/11/18 03:45:05;;;;;;;21.50;10.87;;;;;;;;;;6271989;22;20481;-85
2023/11/18 03:47:42;;;;;;;20.80;13.37;;;;;;;;;;6270962;22;20454;-87
2023/11/18 03:50:26;;;;;;;20.67;11.80;;;;;;;;;;6213604;22;20435;-87
2023/11/18 03:53:09;;;;;;;17.53;11.30;;;;;;;;;;6278729;22;20427;-86
2023/11/18 03:55:48;;;;;;;17.87;11.30;;;;;;;;;;6260871;23;20392;-85
2023/11/18 03:58:19;;;;;;;25.73;12.87;;;;;;;;;;6258413;22;20428;-88
2023/11/18 04:00:50;;;;;;;21.17;12.20;;;;;;;;;;6285133;22;20408;-82
2023/11/18 04:03:43;;;;;;;22.40;12.20;;;;;;;;;;6276424;22;21492;-86
2023/11/18 04:06:49;;;;;;;18.57;11.47;;;;;;;;;;6278659;22;20486;-83
2023/11/18 04:09:49;;;;;;;20.90;11.60;;;;;;;;;;6266763;22;20399;-84
2023/11/18 04:15:23;;;;;;;21.40;11.83;;;;;;;;;;6228524;22;20456;-87
2023/11/18 04:17:59;;;;;;;20.83;12.60;;;;;;;;;;6247770;22;20445;-87
2023/11/18 04:20:41;;;;;;;21.57;12.30;;;;;;;;;;6225029;23;20444;-86
2023/11/18 04:26:51;;;;;;;22.67;11.90;;;;;;;;;;6225254;23;20421;-85
2023/11/18 04:29:55;;;;;;;23.80;12.63;;;;;;;;;;6234377;23;20388;-86
2023/11/18 04:32:54;;;;;;;18.13;12.33;;;;;;;;;;6229672;23;20417;-85
2023/11/18 04:35:30;;;;;;;22.83;12.60;;;;;;;;;;6232941;23;20459;-86
2023/11/18 04:38:03;;;;;;;21.20;12.87;;;;;;;;;;6233593;23;20412;-83
2023/11/18 04:40:47;;;;;;;22.40;13.60;;;;;;;;;;6217241;23;20810;-87
2023/11/18 04:43:47;;;;;;;23.80;13.90;;;;;;;;;;6215745;23;20420;-87
2023/11/18 04:46:22;;;;;;;21.33;12.50;;;;;;;;;;6211882;23;20421;-88
2023/11/18 04:49:31;;;;;;;20.60;12.00;;;;;;;;;;6213435;23;20854;-86
2023/11/18 04:52:26;;;;;;;19.07;10.53;;;;;;;;;;6198980;23;20417;-86
2023/11/18 04:55:13;;;;;;;18.90;11.30;;;;;;;;;;6221749;23;20433;-86
2023/11/18 04:58:16;;;;;;;22.70;12.10;;;;;;;;;;6218265;23;20441;-86
2023/11/18 05:01:05;;;;;;;17.53;11.23;;;;;;;;;;6224751;23;20460;-84
2023/11/18 05:03:51;;;;;;;23.20;12.40;;;;;;;;;;6221379;23;20405;-85
2023/11/18 05:06:30;;;;;;;21.17;13.13;;;;;;;;;;6220845;23;20470;-85
2023/11/18 05:09:08;;;;;;;19.47;11.67;;;;;;;;;;6224258;23;20405;-84
2023/11/18 05:11:38;;;;;;;19.00;12.13;;;;;;;;;;6223703;23;20417;-86
2023/11/18 05:14:37;;;;;;;;;;;;;;;;;;;;;
2023/11/18 05:17:12;;;;;;;20.30;12.63;;;;;;;;;;6223506;23;20436;-87
2023/11/18 05:23:09;;;;;;;23.33;12.57;;;;;;;;;;6213965;23;20417;-86
2023/11/18 05:25:55;;;;;;;19.87;10.67;;;;;;;;;;6211967;23;20497;-85
2023/11/18 05:28:30;;;;;;;24.33;12.73;;;;;;;;;;6219311;23;20432;-84
2023/11/18 05:31:28;;;;;;;20.33;13.53;;;;;;;;;;6175166;23;20393;-85
2023/11/18 05:34:37;;;;;;;22.63;12.13;;;;;;;;;;6211480;23;20416;-85
2023/11/18 05:37:18;;;;;;;19.33;12.03;;;;;;;;;;6211940;23;20525;-84
2023/11/18 05:40:15;;;;;;;26.67;14.63;;;;;;;;;;6212651;23;20448;-85
2023/11/18 05:42:55;;;;;;;21.70;13.17;;;;;;;;;;6211924;23;21098;-85
2023/11/18 05:46:14;;;;;;;22.53;12.07;;;;;;;;;;6207206;23;20464;-87
2023/11/18 05:48:59;;;;;;;23.00;12.63;;;;;;;;;;6217517;23;20422;-85
2023/11/18 05:51:46;;;;;;;;;;;;;;;;;;;;;
2023/11/18 05:54:20;;;;;;;20.20;12.03;;;;;;;;;;6227826;23;20403;-87
2023/11/18 05:57:19;;;;;;;25.20;13.70;;;;;;;;;;6221863;23;20436;-86
2023/11/18 05:59:59;;;;;;;26.30;12.60;;;;;;;;;;6219471;23;20440;-88
2023/11/18 06:02:39;;;;;;;25.40;12.53;;;;;;;;;;6218520;23;20412;-84
2023/11/18 06:05:29;;;;;;;23.30;12.67;;;;;;;;;;6212754;23;20459;-85
2023/11/18 06:08:24;;;;;;;22.63;12.27;;;;;;;;;;6208246;23;20432;-85
2023/11/18 06:14:26;;;;;;;19.83;11.43;;;;;;;;;;6211150;23;20452;-86
2023/11/18 06:17:32;;;;;;;23.43;13.07;;;;;;;;;;6150259;23;20429;-85
2023/11/18 06:20:17;;;;;;;24.20;12.10;;;;;;;;;;6192805;23;20514;-86
2023/11/18 06:26:57;;;;;;;22.57;13.07;;;;;;;;;;6140473;23;20463;-85
2023/11/18 06:29:49;;;;;;;;;;;;;;;;;;;;;
2023/11/18 06:32:54;;;;;;;20.40;11.93;;;;;;;;;;6146787;23;20415;-88
2023/11/18 06:35:47;;;;;;;22.50;13.10;;;;;;;;;;6150940;23;20402;-87
2023/11/18 06:38:49;;;;;;;19.67;12.03;;;;;;;;;;6119044;23;20482;-86
2023/11/18 06:41:33;;;;;;;21.17;12.10;;;;;;;;;;6110656;23;20521;-87
2023/11/18 06:44:29;;;;;;;21.17;11.50;;;;;;;;;;6041357;23;20473;-85
2023/11/18 06:47:43;;;;;;;21.07;12.20;;;;;;;;;;6036961;23;20512;-87
2023/11/18 06:50:44;;;;;;;20.60;10.57;;;;;;;;;;6039977;23;20425;-85
2023/11/18 06:53:36;;;;;;;20.57;12.30;;;;;;;;;;6035414;23;20491;-86
2023/11/18 06:56:25;;;;;;;22.53;12.93;;;;;;;;;;6068187;23;20410;-85
2023/11/18 06:59:04;;;;;;;22.83;12.87;;;;;;;;;;6050021;23;20472;-86
2023/11/18 07:02:43;;;;;;;17.77;10.23;;;;;;;;;;6050980;23;20468;-86
2023/11/18 07:05:57;;;;;;;20.63;12.40;;;;;;;;;;6144905;23;20438;-84
2023/11/18 07:08:35;;;;;;;22.63;12.10;;;;;;;;;;6147073;23;20521;-87
2023/11/18 07:11:38;;;;;;;;;;;;;;;;;;;;;
2023/11/18 07:14:34;;;;;;;20.90;11.77;;;;;;;;;;6158603;23;20486;-85
2023/11/18 07:20:36;;;;;;;18.17;11.60;;;;;;;;;;6003269;23;20490;-86
2023/11/18 07:23:14;;;;;;;17.83;11.00;;;;;;;;;;6045496;23;20428;-87
2023/11/18 07:25:51;;;;;;;18.33;11.00;;;;;;;;;;6044171;23;20422;-85
2023/11/18 07:28:43;;;;;;;17.20;10.93;;;;;;;;;;6043819;23;20506;-87
2023/11/18 07:34:26;;;;;;;13.13;8.73;;;;;;;;;;6041595;23;20418;-87
2023/11/18 07:37:09;;;;;;;17.97;10.17;;;;;;;;;;6041172;23;20433;-84
2023/11/18 07:40:00;;;;;;;19.50;10.30;;;;;;;;;;6096395;23;21382;-83
2023/11/18 07:42:38;;;;;;;20.43;11.20;;;;;;;;;;6119811;23;20421;-84
2023/11/18 07:45:50;;;;;;;17.50;9.57;;;;;;;;;;6102129;23;20430;-84
2023/11/18 07:48:37;;;;;;;17.30;9.17;;;;;;;;;;6103892;23;20416;-86
2023/11/18 07:51:28;;;;;;;19.50;9.97;;;;;;;;;;6119339;23;20462;-85
2023/11/18 07:57:25;;;;;;;15.77;10.00;;;;;;;;;;6207850;23;20413;-85
2023/11/18 08:00:35;;;;;;;14.33;9.43;;;;;;;;;;6151331;23;20441;-87
2023/11/18 08:03:34;;;;;;;14.70;9.00;;;;;;;;;;6211750;23;20405;-83
2023/11/18 08:06:20;;;;;;;18.30;10.10;;;;;;;;;;6214321;23;20563;-87
2023/11/18 08:09:04;;;;;;;13.47;7.37;;;;;;;;;;6210781;23;20408;-87
2023/11/18 08:11:55;;;;;;;12.67;7.97;;;;;;;;;;6212170;23;20397;-86
2023/11/18 08:14:42;;;;;;;15.83;9.40;;;;;;;;;;6185982;23;20405;-85
2023/11/18 08:17:41;;;;;;;14.83;8.77;;;;;;;;;;6211451;23;20756;-84
2023/11/18 08:20:23;;;;;;;11.20;7.60;;;;;;;;;;6210549;23;21075;-86
2023/11/18 08:23:21;;;;;;;10.63;7.07;;;;;;;;;;6210799;23;20427;-86
2023/11/18 08:26:01;;;;;;;15.30;10.63;;;;;;;;;;6213531;23;20468;-86
2023/11/18 08:28:40;;;;;;;14.23;8.63;;;;;;;;;;6210153;23;20530;-87
2023/11/18 08:31:23;;;;;;;10.30;7.87;;;;;;;;;;6213170;23;20444;-84
2023/11/18 08:34:12;;;;;;;14.70;9.50;;;;;;;;;;6210590;23;20433;-84
2023/11/18 08:36:43;;;;;;;13.83;7.40;;;;;;;;;;6209729;23;20433;-87
2023/11/18 08:39:35;;;;;;;10.93;8.17;;;;;;;;;;6210575;23;20471;-84
2023/11/18 08:42:18;;;;;;;13.33;9.73;;;;;;;;;;6212708;23;20476;-85
2023/11/18 08:45:19;;;;;;;16.63;9.53;;;;;;;;;;6191147;23;20955;-87
2023/11/18 08:48:28;;;;;;;15.10;8.47;;;;;;;;;;6149239;23;20411;-84
2023/11/18 08:51:07;;;;;;;10.60;7.77;;;;;;;;;;6151305;23;20406;-86
2023/11/18 08:53:54;;;;;;;12.77;7.83;;;;;;;;;;6149546;23;20442;-86
2023/11/18 09:00:46;;;;;;;12.47;7.83;;;;;;;;;;6095973;23;20962;-84
2023/11/18 09:06:33;;;;;;;11.10;7.50;;;;;;;;;;6168710;23;20478;-88
2023/11/18 09:09:45;;;;;;;13.40;7.90;;;;;;;;;;6202033;23;20424;-87
2023/11/18 09:12:45;;;;;;;10.50;6.00;;;;;;;;;;6216503;23;20416;-87
2023/11/18 09:16:00;;;;;;;9.00;6.70;;;;;;;;;;6209587;23;20408;-85
2023/11/18 09:18:48;;;;;;;10.63;7.37;;;;;;;;;;6214635;23;20758;-84
2023/11/18 09:21:39;;;;;;;;;;;;;;;;;;;;;
2023/11/18 09:24:37;;;;;;;11.60;7.50;;;;;;;;;;6215229;23;20688;-88
2023/11/18 09:30:38;;;;;;;11.80;6.03;;;;;;;;;;6192028;23;20431;-85
2023/11/18 09:33:28;;;;;;;10.10;6.37;;;;;;;;;;6214660;23;20423;-86
2023/11/18 09:36:11;;;;;;;12.77;7.37;;;;;;;;;;6213424;23;20419;-86
2023/11/18 09:39:03;;;;;;;12.60;7.70;;;;;;;;;;6219057;23;20432;-86
2023/11/18 09:41:47;;;;;;;9.53;7.03;;;;;;;;;;6228922;23;20507;-89
2023/11/18 09:44:32;;;;;;;12.80;8.20;;;;;;;;;;6229085;23;20956;-85
2023/11/18 09:47:09;;;;;;;11.30;8.40;;;;;;;;;;6228811;22;20441;-87
2023/11/18 09:50:13;;;;;;;15.10;7.53;;;;;;;;;;6220072;23;20385;-86
2023/11/18 09:53:05;;;;;;;9.90;6.27;;;;;;;;;;6217447;23;20408;-86
2023/11/18 09:56:26;;;;;;;16.60;8.80;;;;;;;;;;6223912;23;20405;-86
2023/11/18 09:59:19;;;;;;;11.60;8.07;;;;;;;;;;6230767;23;20457;-87
2023/11/18 10:02:01;;;;;;;12.53;7.53;;;;;;;;;;6226501;23;20448;-85
2023/11/18 10:04:57;;;;;;;13.57;7.23;;;;;;;;;;6226288;23;20471;-84
2023/11/18 10:07:32;;;;;;;12.50;8.93;;;;;;;;;;6223654;23;20417;-85
2023/11/18 10:10:04;;;;;;;11.40;7.90;;;;;;;;;;6223346;23;20418;-86
2023/11/18 10:12:44;;;;;;;9.80;6.60;;;;;;;;;;6215979;23;20415;-85
2023/11/18 10:15:23;;;;;;;12.07;7.30;;;;;;;;;;6216439;23;20420;-86
2023/11/18 10:18:21;;;;;;;10.43;6.67;;;;;;;;;;6214544;23;20467;-83
2023/11/18 10:20:56;;;;;;;11.90;7.97;;;;;;;;;;6215850;23;20552;-89
2023/11/18 10:23:33;;;;;;;9.30;6.90;;;;;;;;;;6212871;23;20411;-85
2023/11/18 10:26:16;;;;;;;12.53;7.90;;;;;;;;;;6212983;23;20423;-86
2023/11/18 10:28:44;;;;;;;9.30;6.37;;;;;;;;;;6215000;23;20419;-86
2023/11/18 10:31:19;;;;;;;9.00;6.57;;;;;;;;;;6213028;23;20424;-87
2023/11/18 10:34:05;;;;;;;9.60;7.97;;;;;;;;;;6214833;23;20412;-86
2023/11/18 10:37:02;;;;;;;7.93;6.07;;;;;;;;;;6212093;23;20441;-85
2023/11/18 10:39:42;;;;;;;9.23;6.43;;;;;;;;;;6212044;23;20393;-85
2023/11/18 10:42:22;;;;;;;8.43;5.60;;;;;;;;;;6212851;23;20404;-85
2023/11/18 10:45:13;;;;;;;11.50;7.73;;;;;;;;;;6212494;23;20408;-85
2023/11/18 10:48:06;;;;;;;10.00;6.40;;;;;;;;;;6213388;23;20629;-86
2023/11/18 10:51:00;;;;;;;;;;;;;;;;;;;;;
2023/11/18 10:53:37;;;;;;;8.53;6.57;;;;;;;;;;6212836;23;20886;-84
2023/11/18 10:56:27;;;;;;;9.87;6.13;;;;;;;;;;6210247;23;20420;-86
2023/11/18 10:59:16;;;;;;;6.80;4.40;;;;;;;;;;6213552;23;20500;-86
2023/11/18 11:01:53;;;;;;;7.47;4.50;;;;;;;;;;6213285;23;20466;-87
2023/11/18 11:04:20;;;;;;;9.40;6.10;;;;;;;;;;6213824;23;20401;-89
2023/11/18 11:06:53;;;;;;;9.93;6.10;;;;;;;;;;6213435;23;20443;-85
2023/11/18 11:09:27;;;;;;;11.00;6.00;;;;;;;;;;6215344;23;20432;-86
2023/11/18 11:12:07;;;;;;;7.40;5.80;;;;;;;;;;6229964;22;20420;-88
2023/11/18 11:14:36;;;;;;;8.40;5.63;;;;;;;;;;6233081;22;20393;-87
2023/11/18 11:17:11;;;;;;;8.27;5.00;;;;;;;;;;6234038;22;20428;-86
2023/11/18 11:20:10;;;;;;;11.47;6.40;;;;;;;;;;6230891;22;20416;-86
2023/11/18 11:22:45;;;;;;;7.10;5.67;;;;;;;;;;6218233;23;20401;-87
2023/11/18 11:25:25;;;;;;;7.70;5.53;;;;;;;;;;6217725;23;20420;-85
2023/11/18 11:28:02;;;;;;;7.93;5.40;;;;;;;;;;6217093;23;20429;-85
2023/11/18 11:31:01;;;;;;;7.73;5.50;;;;;;;;;;6215792;23;20486;-85
2023/11/18 11:33:43;;;;;;;6.17;5.57;;;;;;;;;;6215493;23;20464;-85
2023/11/18 11:36:16;;;;;;;7.40;5.60;;;;;;;;;;6213896;23;20421;-85
2023/11/18 11:38:53;;;;;;;7.47;5.67;;;;;;;;;;6216464;23;20492;-84
2023/11/18 11:41:28;;;;;;;7.53;5.70;;;;;;;;;;6220544;23;20467;-86
2023/11/18 11:44:06;;;;;;;9.33;5.73;;;;;;;;;;6221831;23;20454;-86
2023/11/18 11:46:41;;;;;;;7.43;6.37;;;;;;;;;;6221585;23;20503;-86
2023/11/18 11:49:31;;;;;;;9.10;5.53;;;;;;;;;;6221111;23;20411;-83
2023/11/18 11:52:29;;;;;;;6.33;5.30;;;;;;;;;;6219812;23;20478;-84
2023/11/18 11:55:14;;;;;;;9.53;5.13;;;;;;;;;;6220858;23;20411;-85
2023/11/18 11:58:39;;;;;;;7.37;6.03;;;;;;;;;;6214121;23;20421;-86
2023/11/18 12:01:53;;;;;;;8.07;5.50;;;;;;;;;;6204371;23;20449;-87
2023/11/18 12:04:41;;;;;;;7.50;5.93;;;;;;;;;;6233356;23;20424;-87
2023/11/18 12:07:27;;;;;;;6.73;4.53;;;;;;;;;;6234629;22;20424;-87
2023/11/18 12:10:21;;;;;;;7.70;5.50;;;;;;;;;;6236373;22;20400;-88
2023/11/18 12:13:30;;;;;;;10.47;5.63;;;;;;;;;;6223936;22;20393;-86
2023/11/18 12:16:20;;;;;;;7.47;4.70;;;;;;;;;;6235057;23;20483;-89
2023/11/18 12:19:24;;;;;;;9.43;6.13;;;;;;;;;;6234317;22;20409;-87
2023/11/18 12:22:12;;;;;;;6.70;5.33;;;;;;;;;;6235521;22;20436;-87
2023/11/18 12:24:50;;;;;;;7.40;6.10;;;;;;;;;;6233946;23;20412;-87
2023/11/18 12:27:46;;;;;;;7.60;5.17;;;;;;;;;;6226552;23;20456;-87
2023/11/18 12:30:30;;;;;;;6.23;5.03;;;;;;;;;;6228043;23;20417;-85
2023/11/18 12:33:18;;;;;;;6.63;5.60;;;;;;;;;;6222712;23;20386;-86
2023/11/18 12:36:13;;;;;;;5.77;4.40;;;;;;;;;;6220453;23;20463;-87
2023/11/18 12:39:19;;;;;;;4.97;4.47;;;;;;;;;;6218998;23;20405;-87
2023/11/18 12:42:24;;;;;;;9.30;5.97;;;;;;;;;;6226674;23;20448;-87
2023/11/18 12:45:11;;;;;;;7.93;5.17;;;;;;;;;;6165545;23;20417;-87
2023/11/18 12:47:52;;;;;;;7.97;6.53;;;;;;;;;;6224458;23;20492;-84
2023/11/18 12:50:32;;;;;;;16.57;7.00;;;;;;;;;;6218161;23;20419;-87
2023/11/18 12:53:28;;;;;;;7.37;4.90;;;;;;;;;;6216880;23;20416;-87
2023/11/18 12:56:13;;;;;;;6.17;4.43;;;;;;;;;;6215150;23;20409;-86
2023/11/18 12:58:57;;;;;;;9.13;5.70;;;;;;;;;;6213223;23;20880;-87
2023/11/18 13:01:33;;;;;;;6.97;4.53;;;;;;;;;;6213818;23;20440;-87
2023/11/18 13:04:15;;;;;;;6.20;5.10;;;;;;;;;;6213907;23;20419;-87
2023/11/18 13:06:47;;;;;;;6.27;4.50;;;;;;;;;;6214494;23;20821;-86
2023/11/18 13:09:26;;;;;;;7.17;3.97;;;;;;;;;;6218364;23;20405;-87
2023/11/18 13:12:12;;;;;;;9.83;5.30;;;;;;;;;;6214070;23;20417;-89
2023/11/18 13:14:53;;;;;;;6.20;4.30;;;;;;;;;;6214966;23;20447;-87
2023/11/18 13:17:33;;;;;;;4.13;3.53;;;;;;;;;;6216031;23;20617;-89
2023/11/18 13:20:19;;;;;;;7.60;5.20;;;;;;;;;;6215816;23;20424;-88
2023/11/18 13:22:46;;;;;;;5.20;4.70;;;;;;;;;;6214960;23;20511;-88
2023/11/18 13:25:32;;;;;;;10.13;6.10;;;;;;;;;;6215402;23;20416;-86
2023/11/18 13:28:51;;;;;;;5.03;4.23;;;;;;;;;;6216807;23;20421;-87
2023/11/18 13:31:28;;;;;;;6.67;4.70;;;;;;;;;;6221234;23;20421;-85
2023/11/18 13:34:16;;;;;;;4.83;3.73;;;;;;;;;;6221700;23;20429;-86
2023/11/18 13:37:08;;;;;;;8.20;4.53;;;;;;;;;;6231714;23;20400;-89
2023/11/18 13:40:18;;;;;;;5.53;3.90;;;;;;;;;;6232693;23;20416;-87
2023/11/18 13:42:48;;;;;;;5.67;4.60;;;;;;;;;;6179780;23;20514;-87
2023/11/18 13:45:21;;;;;;;4.03;3.70;;;;;;;;;;6230609;23;20455;-91
2023/11/18 13:48:25;;;;;;;4.97;3.60;;;;;;;;;;6209687;23;20512;-87
2023/11/18 13:54:22;;;;;;;4.00;3.53;;;;;;;;;;6221652;23;20397;-86
2023/11/18 13:57:00;;;;;;;6.13;3.23;;;;;;;;;;6197843;23;20424;-86
2023/11/18 13:59:33;;;;;;;3.50;3.03;;;;;;;;;;6222240;23;20419;-87
2023/11/18 14:02:08;;;;;;;6.23;2.67;;;;;;;;;;6220331;23;20475;-87
2023/11/18 14:05:24;;;;;;;4.37;3.97;;;;;;;;;;6223658;23;20400;-88
2023/11/18 14:11:17;;;;;;;4.67;1.90;;;;;;;;;;6220649;23;20471;-86
2023/11/18 14:14:08;;;;;;;4.37;2.80;;;;;;;;;;6219990;23;20432;-87
2023/11/18 14:16:58;;;;;;;3.50;2.50;;;;;;;;;;6213072;23;20432;-87
2023/11/18 14:23:22;;;;;;;4.77;2.73;;;;;;;;;;6221285;23;20385;-87
2023/11/18 14:25:56;;;;;;;3.53;2.87;;;;;;;;;;6219440;23;20409;-88
2023/11/18 14:28:43;;;;;;;5.60;3.30;;;;;;;;;;6219915;23;20432;-88
2023/11/18 14:31:34;;;;;;;3.73;3.00;;;;;;;;;;6220437;23;20689;-86
2023/11/18 14:34:01;;;;;;;2.73;2.53;;;;;;;;;;6220403;23;20416;-89
2023/11/18 14:36:30;;;;;;;6.50;3.37;;;;;;;;;;6218929;23;20405;-89
2023/11/18 14:39:02;;;;;;;3.77;3.30;;;;;;;;;;6219386;23;20444;-87
2023/11/18 14:41:41;;;;;;;4.93;2.83;;;;;;;;;;6221539;23;20448;-88
2023/11/18 14:44:11;;;;;;;6.30;3.43;;;;;;;;;;6224949;23;20388;-88
2023/11/18 14:46:45;;;;;;;7.00;3.20;;;;;;;;;;6228864;23;20437;-87
2023/11/18 14:49:22;;;;;;;4.87;3.10;;;;;;;;;;6231444;23;20468;-88
2023/11/18 14:52:09;;;;;;;;;;;;;;;;;;;;;
2023/11/18 14:55:12;;;;;;;9.60;4.10;;;;;;;;;;6228749;23;20428;-88
2023/11/18 14:57:50;;;;;;;13.80;3.93;;;;;;;;;;6222681;23;20499;-87
2023/11/18 15:00:48;;;;;;;3.07;2.77;;;;;;;;;;6218537;23;20413;-88
2023/11/18 15:03:35;;;;;;;2.73;2.27;;;;;;;;;;6219204;23;20401;-86
2023/11/18 15:06:26;;;;;;;4.20;3.23;;;;;;;;;;6220712;23;20991;-87
2023/11/18 15:08:57;;;;;;;4.90;3.10;;;;;;;;;;6219573;23;20405;-87
2023/11/18 15:11:33;;;;;;;5.73;3.50;;;;;;;;;;6226989;22;20433;-87
2023/11/18 15:14:15;;;;;;;6.20;3.70;;;;;;;;;;6225316;23;20396;-88
2023/11/18 15:16:55;;;;;;;6.50;3.40;;;;;;;;;;6200999;23;20433;-87
2023/11/18 15:23:07;;;;;;;5.80;3.73;;;;;;;;;;6225824;23;20440;-87
2023/11/18 15:25:53;;;;;;;6.87;3.60;;;;;;;;;;6231018;23;20496;-88
2023/11/18 15:28:53;;;;;;;5.03;4.20;;;;;;;;;;6204874;22;20389;-88
2023/11/18 15:31:29;;;;;;;5.67;3.83;;;;;;;;;;6233456;22;20559;-87
2023/11/18 15:34:16;;;;;;;4.13;3.40;;;;;;;;;;6231888;23;20432;-87
2023/11/18 15:37:09;;;;;;;6.93;3.57;;;;;;;;;;6223984;22;20467;-87
2023/11/18 15:39:50;;;;;;;4.10;3.10;;;;;;;;;;6241200;23;20805;-86
2023/11/18 15:42:43;;;;;;;6.17;4.37;;;;;;;;;;6239410;23;20699;-87
2023/11/18 15:45:15;;;;;;;5.60;4.27;;;;;;;;;;6242890;23;20772;-87
2023/11/18 15:48:07;;;;;;;7.23;3.90;;;;;;;;;;6235569;22;21106;-86
2023/11/18 15:51:13;;;;;;;6.30;3.63;;;;;;;;;;6219898;23;20413;-87
2023/11/18 15:53:44;;;;;;;3.90;2.90;;;;;;;;;;6216594;23;20413;-86
2023/11/18 15:56:12;;;;;;;3.93;3.53;;;;;;;;;;6217638;23;20445;-86
2023/11/18 15:58:41;;;;;;;5.00;4.57;;;;;;;;;;6216197;23;20476;-86
2023/11/18 16:01:12;;;;;;;6.00;3.73;;;;;;;;;;6226558;23;20417;-88
2023/11/18 16:03:40;;;;;;;6.13;4.00;;;;;;;;;;6224549;23;20417;-87
2023/11/18 16:06:10;;;;;;;4.43;4.00;;;;;;;;;;6220237;23;20496;-87
2023/11/18 16:08:40;;;;;;;5.93;4.20;;;;;;;;;;6220800;23;20411;-89
2023/11/18 16:11:22;;;;;;;2.93;2.33;;;;;;;;;;6221387;23;20390;-87
2023/11/18 16:13:55;;;;;;;5.00;4.20;;;;;;;;;;6220898;23;20424;-91
2023/11/18 16:16:29;;;;;;;3.50;2.80;;;;;;;;;;6219533;23;20413;-90
2023/11/18 16:19:24;;;;;;;5.87;2.87;;;;;;;;;;6220193;23;20424;-87
2023/11/18 16:22:24;;;;;;;4.00;3.20;;;;;;;;;;6219929;23;20562;-87
2023/11/18 16:25:19;;;;;;;3.93;2.93;;;;;;;;;;6218718;23;20401;-87
2023/11/18 16:28:14;;;;;;;4.63;3.00;;;;;;;;;;6213967;23;20478;-88
2023/11/18 16:31:12;;;;;;;6.00;3.27;;;;;;;;;;6218473;23;20390;-89
2023/11/18 16:33:59;;;;;;;3.50;3.20;;;;;;;;;;6155316;23;20425;-88
2023/11/18 16:36:44;;;;;;;5.10;2.73;;;;;;;;;;6158384;23;20785;-86
2023/11/18 16:39:50;;;;;;;5.03;3.23;;;;;;;;;;6156655;23;20430;-87
2023/11/18 16:42:40;;;;;;;3.47;3.17;;;;;;;;;;6139727;23;20438;-85
2023/11/18 16:45:30;;;;;;;3.23;2.93;;;;;;;;;;6136062;23;20382;-87
2023/11/18 16:48:06;;;;;;;3.77;3.23;;;;;;;;;;6157395;23;20440;-89
2023/11/18 16:50:39;;;;;;;3.57;2.53;;;;;;;;;;6157262;23;20414;-87
2023/11/18 16:53:14;;;;;;;3.17;2.87;;;;;;;;;;6155962;23;20506;-87
2023/11/18 16:55:50;;;;;;;3.23;2.87;;;;;;;;;;6214432;23;20424;-89
2023/11/18 16:58:32;;;;;;;5.10;3.20;;;;;;;;;;6219783;23;20432;-88
2023/11/18 17:01:09;;;;;;;3.77;3.47;;;;;;;;;;6219248;23;20492;-86
2023/11/18 17:03:56;;;;;;;2.77;2.50;;;;;;;;;;6217824;23;20443;-89
2023/11/18 17:06:34;;;;;;;3.90;2.77;;;;;;;;;;6219907;23;20405;-89
2023/11/18 17:09:24;;;;;;;4.40;3.00;;;;;;;;;;6216827;23;20419;-86
2023/11/18 17:12:22;;;;;;;5.00;3.30;;;;;;;;;;6218461;23;20471;-87
2023/11/18 17:15:36;;;;;;;3.63;3.30;;;;;;;;;;6125730;23;20395;-87
2023/11/18 17:21:08;;;;;;;5.67;3.03;;;;;;;;;;6127096;23;20431;-87
2023/11/18 17:24:08;;;;;;;3.33;2.80;;;;;;;;;;6127013;23;20416;-88